createdAt,value
2017-11-14T00:00:42.403Z,0
2017-11-14T00:01:55.783Z,0
2017-11-14T00:03:09.135Z,0
2017-11-14T00:04:21.978Z,0
2017-11-14T00:05:34.773Z,0
2017-11-14T00:06:47.018Z,0
2017-11-14T00:08:00.386Z,0
2017-11-14T00:09:13.702Z,0
2017-11-14T00:10:26.550Z,0
2017-11-14T00:11:39.351Z,0
2017-11-14T00:12:52.690Z,0
2017-11-14T00:14:05.487Z,0
2017-11-14T00:15:18.824Z,0
2017-11-14T00:16:31.597Z,0
2017-11-14T00:17:43.877Z,0
2017-11-14T00:18:57.257Z,0
2017-11-14T00:20:10.556Z,0
2017-11-14T00:21:23.925Z,0
2017-11-14T00:22:36.746Z,0
2017-11-14T00:23:50.062Z,0
2017-11-14T00:25:03.402Z,0
2017-11-14T00:26:16.704Z,0
2017-11-14T00:27:29.554Z,0
2017-11-14T00:28:43.108Z,0
2017-11-14T00:29:56.451Z,0
2017-11-14T00:31:09.807Z,0
2017-11-14T00:32:22.630Z,0
2017-11-14T00:33:35.462Z,0
2017-11-14T00:34:48.758Z,0
2017-11-14T00:36:01.639Z,0
2017-11-14T00:37:14.442Z,0
2017-11-14T00:38:27.893Z,0
2017-11-14T00:39:40.683Z,0
2017-11-14T00:40:54.034Z,0
2017-11-14T00:42:06.282Z,0
2017-11-14T00:43:19.603Z,0
2017-11-14T00:44:32.401Z,0
2017-11-14T00:45:45.758Z,0
2017-11-14T00:46:58.585Z,0
2017-11-14T00:48:11.970Z,0
2017-11-14T00:49:24.767Z,0
2017-11-14T00:50:37.045Z,0
2017-11-14T00:51:49.861Z,0
2017-11-14T00:53:03.166Z,0
2017-11-14T00:54:16.515Z,0
2017-11-14T00:55:29.267Z,0
2017-11-14T00:56:42.071Z,0
2017-11-14T00:57:55.404Z,0
2017-11-14T00:59:08.222Z,0
2017-11-14T01:00:21.584Z,0
2017-11-14T01:01:33.847Z,0
2017-11-14T01:02:46.651Z,0
2017-11-14T01:04:00.001Z,0
2017-11-14T01:05:13.340Z,0
2017-11-14T01:06:26.661Z,0
2017-11-14T01:07:40.019Z,0
2017-11-14T01:08:53.296Z,0
2017-11-14T01:10:06.843Z,0
2017-11-14T01:11:19.106Z,0
2017-11-14T01:12:32.472Z,0
2017-11-14T01:13:44.734Z,0
2017-11-14T01:14:58.097Z,0
2017-11-14T01:16:09.848Z,0
2017-11-14T01:17:23.147Z,0
2017-11-14T01:18:35.925Z,0
2017-11-14T01:19:48.700Z,0
2017-11-14T01:21:00.940Z,0
2017-11-14T01:22:14.236Z,0
2017-11-14T01:23:27.607Z,0
2017-11-14T01:24:39.838Z,0
2017-11-14T01:25:53.104Z,0
2017-11-14T01:27:06.627Z,0
2017-11-14T01:28:18.575Z,0
2017-11-14T01:29:31.904Z,0
2017-11-14T01:30:44.175Z,0
2017-11-14T01:31:57.518Z,0
2017-11-14T01:33:10.298Z,0
2017-11-14T01:34:23.634Z,0
2017-11-14T01:35:36.449Z,0
2017-11-14T01:36:49.762Z,0
2017-11-14T01:38:03.082Z,0
2017-11-14T01:39:15.875Z,0
2017-11-14T01:40:29.257Z,0
2017-11-14T01:41:42.611Z,0
2017-11-14T01:42:55.412Z,0
2017-11-14T01:44:08.764Z,0
2017-11-14T01:45:21.552Z,0
2017-11-14T01:46:34.872Z,0
2017-11-14T01:47:48.212Z,0
2017-11-14T01:49:01.532Z,0
2017-11-14T01:50:15.075Z,0
2017-11-14T01:51:27.811Z,0
2017-11-14T01:52:40.640Z,0
2017-11-14T01:53:54.025Z,0
2017-11-14T01:55:07.355Z,0
2017-11-14T01:56:19.592Z,0
2017-11-14T01:57:32.407Z,0
2017-11-14T01:58:44.702Z,0
2017-11-14T01:59:58.034Z,0
2017-11-14T02:01:11.388Z,0
2017-11-14T02:02:24.674Z,0
2017-11-14T02:03:36.917Z,0
2017-11-14T02:04:50.242Z,0
2017-11-14T02:06:03.019Z,0
2017-11-14T02:07:16.411Z,0
2017-11-14T02:08:29.260Z,0
2017-11-14T02:09:42.269Z,0
2017-11-14T02:10:55.571Z,0
2017-11-14T02:12:08.877Z,0
2017-11-14T02:13:22.201Z,0
2017-11-14T02:14:35.498Z,0
2017-11-14T02:15:48.311Z,0
2017-11-14T02:17:01.067Z,0
2017-11-14T02:18:13.867Z,0
2017-11-14T02:19:27.217Z,0
2017-11-14T02:20:40.560Z,0
2017-11-14T02:21:53.956Z,0
2017-11-14T02:23:07.279Z,0
2017-11-14T02:24:20.092Z,0
2017-11-14T02:25:33.407Z,0
2017-11-14T02:26:45.650Z,0
2017-11-14T02:27:59.039Z,0
2017-11-14T02:29:12.368Z,0
2017-11-14T02:30:24.647Z,0
2017-11-14T02:31:38.026Z,0
2017-11-14T02:32:50.829Z,0
2017-11-14T02:34:03.155Z,0
2017-11-14T02:35:15.942Z,0
2017-11-14T02:36:29.265Z,0
2017-11-14T02:37:42.576Z,0
2017-11-14T02:38:55.928Z,0
2017-11-14T02:40:08.221Z,0
2017-11-14T02:41:21.588Z,0
2017-11-14T02:42:34.418Z,0
2017-11-14T02:43:47.215Z,0
2017-11-14T02:45:00.632Z,0
2017-11-14T02:46:13.432Z,0
2017-11-14T02:47:26.227Z,0
2017-11-14T02:48:39.567Z,0
2017-11-14T02:49:52.954Z,0
2017-11-14T02:51:05.224Z,0
2017-11-14T02:52:18.581Z,0
2017-11-14T02:53:31.893Z,0
2017-11-14T02:54:45.211Z,0
2017-11-14T02:55:58.488Z,0
2017-11-14T02:57:11.297Z,0
2017-11-14T02:58:24.665Z,0
2017-11-14T02:59:37.159Z,0
2017-11-14T03:00:49.983Z,0
2017-11-14T03:02:03.373Z,0
2017-11-14T03:03:16.189Z,0
2017-11-14T03:04:29.735Z,0
2017-11-14T03:05:42.530Z,0
2017-11-14T03:06:55.872Z,0
2017-11-14T03:08:09.250Z,0
2017-11-14T03:09:21.507Z,0
2017-11-14T03:10:34.821Z,0
2017-11-14T03:11:47.591Z,0
2017-11-14T03:13:00.922Z,0
2017-11-14T03:14:13.707Z,0
2017-11-14T03:15:25.993Z,0
2017-11-14T03:16:38.771Z,0
2017-11-14T03:17:52.305Z,0
2017-11-14T03:19:05.108Z,0
2017-11-14T03:20:17.959Z,0
2017-11-14T03:21:31.454Z,0
2017-11-14T03:22:43.909Z,0
2017-11-14T03:23:57.237Z,0
2017-11-14T03:25:10.572Z,0
2017-11-14T03:26:23.908Z,0
2017-11-14T03:27:37.276Z,0
2017-11-14T03:28:50.077Z,0
2017-11-14T03:30:03.399Z,0
2017-11-14T03:31:16.235Z,0
2017-11-14T03:32:29.964Z,0
2017-11-14T03:33:43.315Z,0
2017-11-14T03:34:56.625Z,0
2017-11-14T03:36:09.425Z,0
2017-11-14T03:37:22.741Z,0
2017-11-14T03:38:36.072Z,0
2017-11-14T03:39:48.915Z,0
2017-11-14T03:41:02.249Z,0
2017-11-14T03:42:15.636Z,0
2017-11-14T03:43:28.972Z,0
2017-11-14T03:44:41.804Z,0
2017-11-14T03:45:55.113Z,0
2017-11-14T03:47:08.463Z,0
2017-11-14T03:48:20.737Z,0
2017-11-14T03:49:34.081Z,0
2017-11-14T03:50:47.627Z,0
2017-11-14T03:52:00.921Z,0
2017-11-14T03:53:14.269Z,0
2017-11-14T03:54:27.639Z,0
2017-11-14T03:55:40.455Z,0
2017-11-14T03:56:53.761Z,0
2017-11-14T03:58:06.571Z,0
2017-11-14T03:59:19.401Z,0
2017-11-14T04:00:32.744Z,0
2017-11-14T04:01:46.086Z,0
2017-11-14T04:02:59.430Z,0
2017-11-14T04:04:12.688Z,0
2017-11-14T04:05:25.487Z,0
2017-11-14T04:06:37.763Z,0
2017-11-14T04:07:51.086Z,0
2017-11-14T04:09:04.427Z,0
2017-11-14T04:10:17.781Z,0
2017-11-14T04:11:30.568Z,0
2017-11-14T04:12:42.854Z,0
2017-11-14T04:13:56.184Z,0
2017-11-14T04:15:08.984Z,0
2017-11-14T04:16:22.266Z,0
2017-11-14T04:17:35.602Z,0
2017-11-14T04:18:48.952Z,0
2017-11-14T04:20:02.329Z,0
2017-11-14T04:21:15.114Z,0
2017-11-14T04:22:28.410Z,0
2017-11-14T04:23:59.902Z,0
2017-11-14T04:25:13.360Z,0
2017-11-14T04:26:27.402Z,0
2017-11-14T04:27:41.454Z,0
2017-11-14T04:28:55.458Z,0
2017-11-14T04:30:08.870Z,0
2017-11-14T04:31:22.325Z,0
2017-11-14T04:32:36.405Z,0
2017-11-14T04:33:50.865Z,0
2017-11-14T04:35:04.274Z,0
2017-11-14T04:36:17.748Z,0
2017-11-14T04:37:31.820Z,0
2017-11-14T04:38:45.245Z,0
2017-11-14T04:39:58.555Z,0
2017-11-14T04:41:12.001Z,0
2017-11-14T04:42:25.331Z,0
2017-11-14T04:43:38.651Z,0
2017-11-14T04:44:51.452Z,0
2017-11-14T04:46:04.789Z,0
2017-11-14T04:47:17.058Z,0
2017-11-14T04:48:29.846Z,0
2017-11-14T04:49:43.179Z,0
2017-11-14T04:50:56.508Z,0
2017-11-14T04:52:09.857Z,0
2017-11-14T04:53:23.179Z,0
2017-11-14T04:54:36.537Z,0
2017-11-14T04:55:49.895Z,0
2017-11-14T04:57:03.242Z,0
2017-11-14T04:58:16.070Z,0
2017-11-14T04:59:28.912Z,0
2017-11-14T05:00:41.676Z,0
2017-11-14T05:01:54.993Z,0
2017-11-14T05:03:08.324Z,0
2017-11-14T05:04:20.561Z,0
2017-11-14T05:05:33.897Z,0
2017-11-14T05:06:46.745Z,0
2017-11-14T05:08:00.072Z,0
2017-11-14T05:09:13.450Z,0
2017-11-14T05:10:26.428Z,0
2017-11-14T05:11:39.275Z,0
2017-11-14T05:12:52.620Z,0
2017-11-14T05:14:05.983Z,0
2017-11-14T05:15:19.323Z,0
2017-11-14T05:16:32.648Z,0
2017-11-14T05:17:44.908Z,0
2017-11-14T05:18:58.257Z,0
2017-11-14T05:20:10.514Z,0
2017-11-14T05:21:23.361Z,0
2017-11-14T05:22:36.148Z,0
2017-11-14T05:23:48.396Z,0
2017-11-14T05:25:01.725Z,0
2017-11-14T05:26:14.511Z,0
2017-11-14T05:27:27.822Z,0
2017-11-14T05:28:40.599Z,0
2017-11-14T05:29:53.393Z,0
2017-11-14T05:31:06.723Z,0
2017-11-14T05:32:19.530Z,0
2017-11-14T05:33:32.831Z,0
2017-11-14T05:34:46.129Z,0
2017-11-14T05:35:59.421Z,0
2017-11-14T05:37:12.213Z,0
2017-11-14T05:38:25.564Z,0
2017-11-14T05:39:38.383Z,0
2017-11-14T05:40:51.700Z,0
2017-11-14T05:42:05.002Z,0
2017-11-14T05:43:18.315Z,0
2017-11-14T05:44:31.636Z,0
2017-11-14T05:45:44.439Z,0
2017-11-14T05:46:57.799Z,0
2017-11-14T05:48:11.114Z,0
2017-11-14T05:49:23.931Z,0
2017-11-14T05:50:37.248Z,0
2017-11-14T05:51:50.026Z,0
2017-11-14T05:53:03.337Z,0
2017-11-14T05:54:15.628Z,0
2017-11-14T05:55:29.005Z,0
2017-11-14T05:56:42.335Z,0
2017-11-14T05:57:55.638Z,0
2017-11-14T05:59:08.935Z,0
2017-11-14T06:00:21.756Z,0
2017-11-14T06:01:35.053Z,0
2017-11-14T06:02:47.881Z,0
2017-11-14T06:04:01.239Z,0
2017-11-14T06:05:14.556Z,0
2017-11-14T06:06:27.870Z,0
2017-11-14T06:07:40.664Z,0
2017-11-14T06:08:53.958Z,0
2017-11-14T06:10:07.280Z,0
2017-11-14T06:11:20.064Z,0
2017-11-14T06:12:32.812Z,0
2017-11-14T06:13:45.122Z,0
2017-11-14T06:14:57.893Z,0
2017-11-14T06:16:10.140Z,0
2017-11-14T06:17:22.932Z,0
2017-11-14T06:18:36.268Z,0
2017-11-14T06:19:48.546Z,0
2017-11-14T06:21:01.341Z,0
2017-11-14T06:22:14.649Z,0
2017-11-14T06:23:27.974Z,0
2017-11-14T06:24:40.179Z,0
2017-11-14T06:25:53.492Z,0
2017-11-14T06:27:06.237Z,0
2017-11-14T06:28:19.586Z,0
2017-11-14T06:29:32.931Z,0
2017-11-14T06:30:46.277Z,0
2017-11-14T06:31:59.596Z,0
2017-11-14T06:33:12.911Z,0
2017-11-14T06:34:25.703Z,0
2017-11-14T06:35:37.957Z,0
2017-11-14T06:36:50.768Z,0
2017-11-14T06:38:04.094Z,0
2017-11-14T06:39:17.425Z,0
2017-11-14T06:40:30.768Z,0
2017-11-14T06:41:44.084Z,0
2017-11-14T06:42:56.344Z,0
2017-11-14T06:44:09.134Z,0
2017-11-14T06:45:22.475Z,0
2017-11-14T06:46:35.788Z,0
2017-11-14T06:47:48.789Z,0
2017-11-14T06:49:02.056Z,0
2017-11-14T06:50:15.419Z,0
2017-11-14T06:51:28.216Z,0
2017-11-14T06:52:40.989Z,0
2017-11-14T06:53:54.313Z,0
2017-11-14T06:55:07.136Z,0
2017-11-14T06:56:20.434Z,0
2017-11-14T06:57:33.738Z,0
2017-11-14T06:58:46.496Z,0
2017-11-14T06:59:59.785Z,0
2017-11-14T07:01:12.674Z,0
2017-11-14T07:02:25.467Z,0
2017-11-14T07:03:38.797Z,0
2017-11-14T07:04:51.637Z,0
2017-11-14T07:06:04.967Z,0
2017-11-14T07:07:18.205Z,0
2017-11-14T07:08:31.565Z,0
2017-11-14T07:09:44.349Z,0
2017-11-14T07:10:57.649Z,0
2017-11-14T07:12:10.479Z,0
2017-11-14T07:13:23.806Z,0
2017-11-14T07:14:37.134Z,0
2017-11-14T07:15:50.461Z,0
2017-11-14T07:17:03.760Z,0
2017-11-14T07:18:17.098Z,0
2017-11-14T07:19:30.426Z,0
2017-11-14T07:20:43.750Z,0
2017-11-14T07:21:57.300Z,0
2017-11-14T07:23:10.589Z,0
2017-11-14T07:24:23.906Z,0
2017-11-14T07:25:37.173Z,0
2017-11-14T07:26:50.531Z,0
2017-11-14T07:28:03.313Z,0
2017-11-14T07:29:16.675Z,0
2017-11-14T07:30:29.996Z,0
2017-11-14T07:31:43.352Z,0
2017-11-14T07:32:56.156Z,0
2017-11-14T07:34:09.462Z,0
2017-11-14T07:35:22.842Z,0
2017-11-14T07:36:36.166Z,0
2017-11-14T07:37:48.946Z,0
2017-11-14T07:39:02.239Z,0
2017-11-14T07:40:15.584Z,0
2017-11-14T07:41:28.879Z,0
2017-11-14T07:42:42.184Z,0
2017-11-14T07:43:55.481Z,0
2017-11-14T07:45:08.814Z,0
2017-11-14T07:46:22.172Z,0
2017-11-14T07:47:35.530Z,0
2017-11-14T07:48:48.309Z,0
2017-11-14T07:50:01.064Z,4
2017-11-14T07:51:13.855Z,8
2017-11-14T07:52:26.648Z,8
2017-11-14T07:53:39.447Z,12
2017-11-14T07:54:52.774Z,16
2017-11-14T07:56:06.096Z,20
2017-11-14T07:57:18.909Z,28
2017-11-14T07:58:30.638Z,40
2017-11-14T07:59:43.419Z,48
2017-11-14T08:00:56.776Z,64
2017-11-14T08:02:09.048Z,84
2017-11-14T08:03:22.357Z,112
2017-11-14T08:04:35.677Z,140
2017-11-14T08:05:47.905Z,176
2017-11-14T08:07:01.231Z,220
2017-11-14T08:08:14.023Z,268
2017-11-14T08:09:26.261Z,328
2017-11-14T08:10:39.605Z,392
2017-11-14T08:11:53.142Z,468
2017-11-14T08:13:06.425Z,552
2017-11-14T08:14:19.211Z,640
2017-11-14T08:15:31.507Z,736
2017-11-14T08:16:44.818Z,844
2017-11-14T08:17:58.118Z,972
2017-11-14T08:19:11.397Z,1136
2017-11-14T08:20:24.706Z,1328
2017-11-14T08:21:38.069Z,1540
2017-11-14T08:22:50.855Z,1808
2017-11-14T08:24:03.647Z,2052
2017-11-14T08:25:16.992Z,2348
2017-11-14T08:26:29.769Z,2708
2017-11-14T08:27:43.111Z,3020
2017-11-14T08:28:56.394Z,3380
2017-11-14T08:30:09.149Z,3780
2017-11-14T08:31:22.491Z,4212
2017-11-14T08:32:35.815Z,4792
2017-11-14T08:33:48.623Z,5080
2017-11-14T08:35:01.438Z,5620
2017-11-14T08:36:14.758Z,6252
2017-11-14T08:37:28.107Z,6704
2017-11-14T08:38:41.455Z,6988
2017-11-14T08:39:54.227Z,7772
2017-11-14T08:41:06.512Z,8068
2017-11-14T08:42:19.913Z,7820
2017-11-14T08:43:33.278Z,8584
2017-11-14T08:44:46.619Z,9672
2017-11-14T08:45:59.397Z,10500
2017-11-14T08:47:12.229Z,11396
2017-11-14T08:48:25.574Z,11292
2017-11-14T08:49:38.911Z,11488
2017-11-14T08:50:51.702Z,12980
2017-11-14T08:52:05.046Z,13824
2017-11-14T08:53:17.883Z,14720
2017-11-14T08:54:30.627Z,15424
2017-11-14T08:55:43.937Z,15808
2017-11-14T08:56:57.478Z,16128
2017-11-14T08:58:10.842Z,16768
2017-11-14T08:59:23.691Z,17728
2017-11-14T09:00:37.040Z,18368
2017-11-14T09:01:49.315Z,18848
2017-11-14T09:03:02.097Z,19808
2017-11-14T09:04:14.904Z,19936
2017-11-14T09:05:27.711Z,20416
2017-11-14T09:06:41.034Z,21248
2017-11-14T09:07:54.362Z,22336
2017-11-14T09:09:07.189Z,22720
2017-11-14T09:10:20.545Z,23360
2017-11-14T09:11:33.317Z,24640
2017-11-14T09:12:46.658Z,24704
2017-11-14T09:13:59.997Z,25152
2017-11-14T09:15:13.358Z,25664
2017-11-14T09:16:26.712Z,27744
2017-11-14T09:17:40.006Z,27936
2017-11-14T09:18:53.377Z,28192
2017-11-14T09:20:05.923Z,29312
2017-11-14T09:21:19.254Z,29472
2017-11-14T09:22:32.083Z,30048
2017-11-14T09:23:44.886Z,30080
2017-11-14T09:24:58.444Z,31392
2017-11-14T09:26:11.456Z,32864
2017-11-14T09:27:24.812Z,32992
2017-11-14T09:28:38.113Z,35392
2017-11-14T09:29:51.514Z,35552
2017-11-14T09:31:04.854Z,36672
2017-11-14T09:32:17.160Z,36352
2017-11-14T09:33:30.499Z,36288
2017-11-14T09:34:43.849Z,36864
2017-11-14T09:35:56.681Z,38592
2017-11-14T09:37:09.360Z,41376
2017-11-14T09:38:22.094Z,42464
2017-11-14T09:39:35.435Z,42752
2017-11-14T09:40:48.980Z,43200
2017-11-14T09:42:02.751Z,44576
2017-11-14T09:43:16.108Z,44896
2017-11-14T09:44:29.335Z,44544
2017-11-14T09:45:42.170Z,48224
2017-11-14T09:46:55.209Z,47872
2017-11-14T09:48:08.762Z,49824
2017-11-14T09:49:22.099Z,50688
2017-11-14T09:50:35.448Z,50656
2017-11-14T09:51:48.233Z,50912
2017-11-14T09:53:01.600Z,50560
2017-11-14T09:54:14.618Z,50144
2017-11-14T09:55:28.139Z,53568
2017-11-14T09:56:41.695Z,54112
2017-11-14T09:57:55.020Z,56832
2017-11-14T09:59:08.349Z,56192
2017-11-14T10:00:21.723Z,58720
2017-11-14T10:01:34.585Z,58656
2017-11-14T10:02:47.971Z,58336
2017-11-14T10:04:00.738Z,57792
2017-11-14T10:05:13.508Z,59616
2017-11-14T10:06:26.351Z,61696
2017-11-14T10:07:39.176Z,59744
2017-11-14T10:08:52.025Z,54912
2017-11-14T10:10:05.385Z,58944
2017-11-14T10:11:18.743Z,63168
2017-11-14T10:12:32.066Z,65312
2017-11-14T10:13:45.384Z,66784
2017-11-14T10:14:58.731Z,63136
2017-11-14T10:16:11.577Z,65824
2017-11-14T10:17:24.384Z,65728
2017-11-14T10:18:37.202Z,65248
2017-11-14T10:19:49.991Z,62496
2017-11-14T10:21:02.265Z,66656
2017-11-14T10:22:15.986Z,66528
2017-11-14T10:23:29.359Z,67456
2017-11-14T10:24:42.944Z,68448
2017-11-14T10:25:56.265Z,68192
2017-11-14T10:27:09.150Z,69472
2017-11-14T10:28:21.444Z,71744
2017-11-14T10:29:34.434Z,71808
2017-11-14T10:30:47.783Z,70432
2017-11-14T10:32:01.335Z,72320
2017-11-14T10:33:13.109Z,71136
2017-11-14T10:34:26.449Z,71264
2017-11-14T10:35:39.278Z,76000
2017-11-14T10:36:52.615Z,75168
2017-11-14T10:38:05.970Z,75872
2017-11-14T10:39:19.728Z,80832
2017-11-14T10:40:32.028Z,78528
2017-11-14T10:41:45.758Z,77344
2017-11-14T10:42:59.702Z,75488
2017-11-14T10:44:12.694Z,74080
2017-11-14T10:45:26.056Z,73120
2017-11-14T10:46:40.230Z,83008
2017-11-14T10:47:53.556Z,79744
2017-11-14T10:49:06.327Z,76832
2017-11-14T10:50:19.317Z,79936
2017-11-14T10:51:32.334Z,81024
2017-11-14T10:52:45.736Z,82688
2017-11-14T10:53:58.776Z,84160
2017-11-14T10:55:12.433Z,78784
2017-11-14T10:56:26.958Z,81184
2017-11-14T10:57:40.492Z,82560
2017-11-14T10:58:54.484Z,78752
2017-11-14T11:00:08.072Z,76288
2017-11-14T11:01:21.287Z,79872
2017-11-14T11:02:34.628Z,76160
2017-11-14T11:03:48.372Z,74208
2017-11-14T11:05:01.409Z,76768
2017-11-14T11:06:14.193Z,79840
2017-11-14T11:07:27.542Z,72480
2017-11-14T11:08:40.922Z,78336
2017-11-14T11:09:53.775Z,82048
2017-11-14T11:11:06.585Z,69344
2017-11-14T11:12:19.360Z,57952
2017-11-14T11:13:32.720Z,47968
2017-11-14T11:14:46.095Z,45952
2017-11-14T11:15:59.645Z,45792
2017-11-14T11:17:12.447Z,44896
2017-11-14T11:18:25.774Z,42976
2017-11-14T11:19:39.539Z,41760
2017-11-14T11:20:52.921Z,41888
2017-11-14T11:22:06.266Z,41920
2017-11-14T11:23:19.608Z,41440
2017-11-14T11:24:32.898Z,41344
2017-11-14T11:25:46.644Z,42176
2017-11-14T11:26:59.652Z,43072
2017-11-14T11:28:12.472Z,43808
2017-11-14T11:29:24.948Z,46528
2017-11-14T11:30:37.712Z,51488
2017-11-14T11:31:51.040Z,54048
2017-11-14T11:33:03.880Z,55360
2017-11-14T11:34:16.688Z,56960
2017-11-14T11:35:30.039Z,57792
2017-11-14T11:36:43.443Z,59008
2017-11-14T11:37:56.221Z,59776
2017-11-14T11:39:09.553Z,56960
2017-11-14T11:40:22.924Z,57600
2017-11-14T11:41:36.142Z,58208
2017-11-14T11:42:48.994Z,54688
2017-11-14T11:44:02.371Z,55104
2017-11-14T11:45:15.152Z,55008
2017-11-14T11:46:27.735Z,56800
2017-11-14T11:47:41.087Z,56640
2017-11-14T11:48:54.396Z,52352
2017-11-14T11:50:07.232Z,51232
2017-11-14T11:51:20.030Z,52960
2017-11-14T11:52:33.401Z,57088
2017-11-14T11:53:46.942Z,60800
2017-11-14T11:54:59.794Z,55712
2017-11-14T11:56:11.522Z,56640
2017-11-14T11:57:24.876Z,61280
2017-11-14T11:58:37.647Z,64000
2017-11-14T11:59:50.472Z,65184
2017-11-14T12:01:03.286Z,67584
2017-11-14T12:02:16.600Z,69856
2017-11-14T12:03:29.444Z,64992
2017-11-14T12:04:42.787Z,66208
2017-11-14T12:05:56.227Z,66976
2017-11-14T12:07:09.069Z,66080
2017-11-14T12:08:22.429Z,70784
2017-11-14T12:09:35.223Z,75904
2017-11-14T12:10:48.546Z,73920
2017-11-14T12:12:01.912Z,75648
2017-11-14T12:13:15.267Z,74816
2017-11-14T12:14:28.097Z,80416
2017-11-14T12:15:41.414Z,80800
2017-11-14T12:16:53.722Z,75488
2017-11-14T12:18:07.040Z,68288
2017-11-14T12:19:20.397Z,60288
2017-11-14T12:20:33.619Z,64576
2017-11-14T12:21:46.968Z,68832
2017-11-14T12:23:00.354Z,68800
2017-11-14T12:24:13.745Z,68416
2017-11-14T12:25:27.106Z,63680
2017-11-14T12:26:39.903Z,57792
2017-11-14T12:27:53.213Z,55680
2017-11-14T12:29:06.000Z,50464
2017-11-14T12:30:18.232Z,48832
2017-11-14T12:31:31.659Z,48064
2017-11-14T12:32:45.034Z,47584
2017-11-14T12:33:58.351Z,47424
2017-11-14T12:35:12.315Z,47424
2017-11-14T12:36:25.105Z,47616
2017-11-14T12:37:37.925Z,48096
2017-11-14T12:38:51.241Z,48864
2017-11-14T12:40:04.580Z,48384
2017-11-14T12:41:17.372Z,47488
2017-11-14T12:42:31.350Z,47872
2017-11-14T12:43:44.195Z,48032
2017-11-14T12:44:57.590Z,47200
2017-11-14T12:46:11.136Z,47264
2017-11-14T12:47:23.935Z,47424
2017-11-14T12:48:37.239Z,47392
2017-11-14T12:49:51.764Z,47520
2017-11-14T12:51:04.755Z,47360
2017-11-14T12:52:18.134Z,47136
2017-11-14T12:53:31.029Z,47008
2017-11-14T12:54:44.408Z,47360
2017-11-14T12:55:57.782Z,46912
2017-11-14T12:57:11.316Z,46720
2017-11-14T12:58:24.773Z,46752
2017-11-14T12:59:37.784Z,46880
2017-11-14T13:00:50.779Z,47040
2017-11-14T13:02:03.790Z,46688
2017-11-14T13:03:16.316Z,47136
2017-11-14T13:04:28.901Z,47232
2017-11-14T13:05:41.449Z,47392
2017-11-14T13:06:54.444Z,47808
2017-11-14T13:08:07.465Z,48160
2017-11-14T13:09:20.498Z,48608
2017-11-14T13:10:33.538Z,49088
2017-11-14T13:11:46.139Z,49120
2017-11-14T13:12:58.715Z,49728
2017-11-14T13:14:12.380Z,50688
2017-11-14T13:15:25.404Z,51200
2017-11-14T13:16:37.910Z,51904
2017-11-14T13:17:50.919Z,52352
2017-11-14T13:19:04.752Z,53216
2017-11-14T13:20:17.774Z,54016
2017-11-14T13:21:30.508Z,55136
2017-11-14T13:22:43.529Z,55584
2017-11-14T13:23:57.444Z,55552
2017-11-14T13:25:09.983Z,55488
2017-11-14T13:26:23.247Z,55616
2017-11-14T13:27:36.285Z,56544
2017-11-14T13:28:49.309Z,57344
2017-11-14T13:30:02.314Z,58272
2017-11-14T13:31:15.555Z,59328
2017-11-14T13:32:28.571Z,60224
2017-11-14T13:33:41.589Z,62240
2017-11-14T13:34:54.144Z,66464
2017-11-14T13:36:06.958Z,67552
2017-11-14T13:37:19.509Z,64992
2017-11-14T13:38:32.061Z,64064
2017-11-14T13:39:45.115Z,62400
2017-11-14T13:40:58.110Z,61984
2017-11-14T13:42:11.149Z,62496
2017-11-14T13:43:23.727Z,64128
2017-11-14T13:44:36.647Z,65184
2017-11-14T13:45:49.696Z,63744
2017-11-14T13:47:02.246Z,61408
2017-11-14T13:48:15.252Z,61152
2017-11-14T13:49:28.337Z,61344
2017-11-14T13:50:40.898Z,60800
2017-11-14T13:51:53.941Z,60512
2017-11-14T13:53:07.168Z,59936
2017-11-14T13:54:20.184Z,59616
2017-11-14T13:55:33.239Z,60000
2017-11-14T13:56:45.789Z,60896
2017-11-14T13:57:57.417Z,61120
2017-11-14T13:59:10.439Z,60480
2017-11-14T14:00:23.006Z,58976
2017-11-14T14:01:35.550Z,59136
2017-11-14T14:02:47.880Z,59872
2017-11-14T14:04:00.920Z,64896
2017-11-14T14:05:13.952Z,70656
2017-11-14T14:06:26.975Z,68032
2017-11-14T14:07:39.988Z,61952
2017-11-14T14:08:53.014Z,59104
2017-11-14T14:10:06.042Z,59424
2017-11-14T14:11:18.613Z,59744
2017-11-14T14:12:31.191Z,60544
2017-11-14T14:13:43.712Z,62208
2017-11-14T14:14:56.754Z,63680
2017-11-14T14:16:09.310Z,69088
2017-11-14T14:17:22.332Z,79040
2017-11-14T14:18:35.331Z,87776
2017-11-14T14:19:47.907Z,89600
2017-11-14T14:21:00.939Z,79872
2017-11-14T14:22:13.073Z,69344
2017-11-14T14:23:26.122Z,64928
2017-11-14T14:24:38.691Z,62656
2017-11-14T14:25:51.698Z,61760
2017-11-14T14:27:04.693Z,60736
2017-11-14T14:28:17.254Z,59872
2017-11-14T14:29:30.246Z,59584
2017-11-14T14:30:43.250Z,59232
2017-11-14T14:31:56.294Z,58848
2017-11-14T14:33:09.365Z,58464
2017-11-14T14:34:21.929Z,57728
2017-11-14T14:35:34.461Z,57824
2017-11-14T14:36:47.040Z,57920
2017-11-14T14:38:00.155Z,57792
2017-11-14T14:39:12.703Z,57024
2017-11-14T14:40:25.743Z,56512
2017-11-14T14:41:38.299Z,56512
2017-11-14T14:42:50.865Z,56256
2017-11-14T14:44:03.398Z,56864
2017-11-14T14:45:16.420Z,57024
2017-11-14T14:46:29.405Z,57792
2017-11-14T14:47:43.065Z,57888
2017-11-14T14:48:55.615Z,57664
2017-11-14T14:50:08.168Z,57216
2017-11-14T14:51:21.195Z,57024
2017-11-14T14:52:34.257Z,58272
2017-11-14T14:53:47.503Z,59392
2017-11-14T14:55:00.532Z,63744
2017-11-14T14:56:13.110Z,73184
2017-11-14T14:57:25.657Z,75232
2017-11-14T14:58:38.723Z,68032
2017-11-14T14:59:51.773Z,63968
2017-11-14T15:01:05.208Z,62656
2017-11-14T15:02:18.210Z,60224
2017-11-14T15:03:31.212Z,58848
2017-11-14T15:04:43.783Z,57504
2017-11-14T15:05:56.832Z,56512
2017-11-14T15:07:09.862Z,56544
2017-11-14T15:08:22.400Z,57344
2017-11-14T15:09:34.522Z,58432
2017-11-14T15:10:47.045Z,58688
2017-11-14T15:12:00.000Z,57344
2017-11-14T15:13:13.071Z,57728
2017-11-14T15:14:26.053Z,60160
2017-11-14T15:15:39.122Z,59456
2017-11-14T15:16:51.633Z,56352
2017-11-14T15:18:04.613Z,54976
2017-11-14T15:19:17.645Z,55200
2017-11-14T15:20:30.184Z,55776
2017-11-14T15:21:42.326Z,56032
2017-11-14T15:22:54.892Z,56224
2017-11-14T15:24:07.919Z,56640
2017-11-14T15:25:20.041Z,57600
2017-11-14T15:26:33.081Z,58752
2017-11-14T15:27:46.131Z,60448
2017-11-14T15:28:59.102Z,62336
2017-11-14T15:30:11.150Z,65024
2017-11-14T15:31:24.473Z,73536
2017-11-14T15:32:36.548Z,80928
2017-11-14T15:33:49.567Z,79904
2017-11-14T15:35:02.145Z,75104
2017-11-14T15:36:15.265Z,74752
2017-11-14T15:37:28.270Z,77824
2017-11-14T15:38:41.343Z,80992
2017-11-14T15:39:54.359Z,87552
2017-11-14T15:41:07.381Z,102080
2017-11-14T15:42:19.941Z,109024
2017-11-14T15:43:32.933Z,110880
2017-11-14T15:44:45.952Z,120864
2017-11-14T15:45:58.960Z,128192
2017-11-14T15:47:11.970Z,120512
2017-11-14T15:48:25.011Z,117888
2017-11-14T15:49:38.006Z,122080
2017-11-14T15:50:51.022Z,121472
2017-11-14T15:52:04.750Z,121568
2017-11-14T15:53:17.813Z,122272
2017-11-14T15:54:30.380Z,123360
2017-11-14T15:55:43.386Z,124000
2017-11-14T15:56:55.939Z,124320
2017-11-14T15:58:08.955Z,129408
2017-11-14T15:59:21.465Z,129312
2017-11-14T16:00:33.970Z,125952
2017-11-14T16:01:46.553Z,123872
2017-11-14T16:02:59.546Z,125504
2017-11-14T16:04:11.630Z,131648
2017-11-14T16:05:24.661Z,128864
2017-11-14T16:06:37.672Z,121632
2017-11-14T16:07:50.668Z,121280
2017-11-14T16:09:02.271Z,123616
2017-11-14T16:10:15.279Z,124192
2017-11-14T16:11:28.295Z,119520
2017-11-14T16:12:40.826Z,114368
2017-11-14T16:13:53.946Z,112928
2017-11-14T16:15:06.953Z,114560
2017-11-14T16:16:19.514Z,113728
2017-11-14T16:17:32.531Z,111712
2017-11-14T16:18:46.255Z,113952
2017-11-14T16:19:59.954Z,111968
2017-11-14T16:21:12.993Z,108032
2017-11-14T16:22:26.041Z,107232
2017-11-14T16:23:39.057Z,106784
2017-11-14T16:24:52.023Z,108160
2017-11-14T16:26:05.057Z,107360
2017-11-14T16:27:18.116Z,106784
2017-11-14T16:28:31.163Z,106720
2017-11-14T16:29:44.197Z,109152
2017-11-14T16:30:57.224Z,108800
2017-11-14T16:32:10.304Z,109056
2017-11-14T16:33:22.613Z,107776
2017-11-14T16:34:35.146Z,107936
2017-11-14T16:35:47.732Z,108832
2017-11-14T16:37:00.718Z,108160
2017-11-14T16:38:13.468Z,110144
2017-11-14T16:39:26.037Z,110464
2017-11-14T16:40:38.602Z,112704
2017-11-14T16:41:51.164Z,114944
2017-11-14T16:43:04.189Z,113088